Time;durP1;ratioP1;P1;durP2;ratioP2;P2;SDS_P1;SDS_P2;PMS_P1;PMS_P2;Temp;Humidity;BMP_temperature;BMP_pressure;BME280_temperature;BME280_humidity;BME280_pressure;Samples;Min_cycle;Max_cycle;Signal;HPM_P1;HPM_P2
2022/11/25 00:00:52;;;;;;;;;;;;;;;21.56;47.14;101054.47;5103814;27;3984;-67
2022/11/25 00:03:18;;;;;;;;;;;;;;;21.50;47.11;101057.78;5111790;27;4127;-68
2022/11/25 00:05:44;;;;;;;;;;;;;;;21.49;47.37;101048.41;5112351;27;4294;-68
2022/11/25 00:08:11;;;;;;;;;;;;;;;21.50;47.29;101052.03;5105768;27;4188;-68
2022/11/25 00:10:37;;;;;;;;;;;;;;;21.50;47.08;101052.03;5108099;27;4307;-68
2022/11/25 00:13:03;;;;;;;;;;;;;;;21.50;47.24;101052.03;5112618;27;4289;-68
2022/11/25 00:15:30;;;;;;;;;;;;;;;21.49;47.10;101045.53;5111882;27;3990;-67
2022/11/25 00:17:56;;;;;;;;;;;;;;;21.45;47.01;101050.38;5115231;27;4198;-68
2022/11/25 00:20:23;;;;;;;;;;;;;;;21.46;47.00;101051.84;5102032;27;6712;-68
2022/11/25 00:22:49;;;;;;;;;;;;;;;21.46;47.33;101051.84;5105649;27;4519;-68
2022/11/25 00:25:15;;;;;;;;;;;;;;;21.47;47.16;101041.81;5090085;28;4080;-67
2022/11/25 00:27:42;;;;;;;;;;;;;;;21.47;47.02;101050.47;5105737;27;4108;-67
2022/11/25 00:30:08;;;;;;;;;;;;;;;21.45;47.10;101044.59;5083790;28;4084;-67
2022/11/25 00:32:34;;;;;;;;;;;;;;;21.47;47.31;101036.06;5102882;27;4452;-67
2022/11/25 00:35:01;;;;;;;;;;;;;;;21.45;47.11;101041.72;5110960;27;4112;-68
2022/11/25 00:37:27;;;;;;;;;;;;;;;21.42;47.17;101043.03;5102658;27;5234;-67
2022/11/25 00:39:53;;;;;;;;;;;;;;;21.43;47.43;101041.63;5098434;27;4091;-67
2022/11/25 00:45:05;;;;;;;;;;;;;;;21.45;47.43;101059.00;5080661;27;4214;-68
2022/11/25 00:47:31;;;;;;;;;;;;;;;21.46;47.37;101054.72;5101087;27;4115;-68
2022/11/25 00:49:57;;;;;;;;;;;;;;;21.50;47.19;101054.91;5085159;27;4241;-67
2022/11/25 00:52:24;;;;;;;;;;;;;;;21.48;47.09;101054.81;5104600;27;4193;-68
2022/11/25 00:54:51;;;;;;;;;;;;;;;21.51;47.12;101060.03;5091433;27;4245;-67
2022/11/25 00:57:18;;;;;;;;;;;;;;;21.53;47.11;101062.25;5104531;27;4231;-67
2022/11/25 00:59:44;;;;;;;;;;;;;;;21.55;47.20;101059.44;5073886;27;4735;-67
2022/11/25 01:02:11;;;;;;;;;;;;;;;21.54;47.38;101057.97;5104620;27;3968;-67
2022/11/25 01:04:37;;;;;;;;;;;;;;;21.52;47.28;101055.75;5077299;27;4090;-67
2022/11/25 01:07:04;;;;;;;;;;;;;;;21.51;47.17;101048.50;5103811;27;4181;-67
2022/11/25 01:09:30;;;;;;;;;;;;;;;21.49;47.31;101047.69;5106026;27;4157;-67
2022/11/25 01:11:56;;;;;;;;;;;;;;;21.47;47.33;101053.34;5081049;27;4193;-68
2022/11/25 01:14:23;;;;;;;;;;;;;;;21.50;47.39;101054.91;5075064;27;4776;-67
2022/11/25 01:16:49;;;;;;;;;;;;;;;21.46;47.25;101058.38;5107809;27;4168;-67
2022/11/25 01:19:15;;;;;;;;;;;;;;;21.45;47.28;101051.09;5099427;27;4021;-67
2022/11/25 01:21:42;;;;;;;;;;;;;;;21.42;47.33;101051.69;5101061;27;4143;-68
2022/11/25 01:24:10;;;;;;;;;;;;;;;21.45;47.38;101056.13;5105170;27;4210;-68
2022/11/25 01:26:37;;;;;;;;;;;;;;;21.42;47.38;101046.66;5102787;27;4120;-67
2022/11/25 01:29:04;;;;;;;;;;;;;;;21.43;47.57;101035.88;5102460;27;4231;-67
2022/11/25 01:31:33;;;;;;;;;;;;;;;21.41;47.57;101044.41;5077332;27;4104;-67
2022/11/25 01:34:00;;;;;;;;;;;;;;;21.37;47.64;101041.31;5106836;27;4205;-67
2022/11/25 01:36:26;;;;;;;;;;;;;;;21.40;47.44;101042.91;5106963;27;3989;-67
2022/11/25 01:38:53;;;;;;;;;;;;;;;21.39;47.58;101035.66;5108930;27;4103;-68
2022/11/25 01:41:20;;;;;;;;;;;;;;;21.38;47.56;101029.16;5108969;27;6298;-68
2022/11/25 01:44:05;;;;;;;;;;;;;;;21.38;47.44;101029.16;5106621;27;4205;-68
2022/11/25 01:46:37;;;;;;;;;;;;;;;21.36;47.68;101025.44;5092868;27;3945;-67
2022/11/25 01:49:05;;;;;;;;;;;;;;;21.32;47.57;101020.97;5093391;27;5111;-68
2022/11/25 01:51:34;;;;;;;;;;;;;;;21.37;47.62;101015.41;5089066;27;4048;-68
2022/11/25 01:54:01;;;;;;;;;;;;;;;21.36;47.63;101013.91;5088924;27;4101;-68
2022/11/25 01:56:27;;;;;;;;;;;;;;;21.33;47.47;101010.94;5050538;28;4169;-67
2022/11/25 01:58:54;;;;;;;;;;;;;;;21.30;47.63;101020.91;5078951;27;5142;-68
2022/11/25 02:01:20;;;;;;;;;;;;;;;21.28;47.70;101020.81;5101590;27;4123;-68
2022/11/25 02:03:47;;;;;;;;;;;;;;;21.32;47.73;101015.22;5107227;27;4305;-67
2022/11/25 02:06:22;;;;;;;;;;;;;;;21.32;47.78;101009.44;5079534;27;4177;-66
2022/11/25 02:08:49;;;;;;;;;;;;;;;21.30;47.62;101012.25;5110013;27;4042;-67
2022/11/25 02:11:16;;;;;;;;;;;;;;;21.32;47.57;101015.22;5076336;27;5646;-68
2022/11/25 02:13:42;;;;;;;;;;;;;;;21.21;48.11;101015.41;5090892;27;4195;-67
2022/11/25 02:16:09;;;;;;;;;;;;;;;21.24;47.75;101017.75;5086800;27;4206;-67
2022/11/25 02:18:35;;;;;;;;;;;;;;;21.19;48.10;101024.72;5097819;27;4198;-67
2022/11/25 02:21:03;;;;;;;;;;;;;;;21.14;48.25;101031.66;5101724;27;5451;-67
2022/11/25 02:23:32;;;;;;;;;;;;;;;21.26;48.09;101035.13;5082470;28;5414;-67
2022/11/25 02:25:59;;;;;;;;;;;;;;;21.29;47.71;101033.81;5085902;28;4053;-67
2022/11/25 02:28:26;;;;;;;;;;;;;;;21.26;47.83;101028.63;5081747;28;4365;-68
2022/11/25 02:30:53;;;;;;;;;;;;;;;21.22;47.81;101020.53;5058542;28;3926;-68
2022/11/25 02:33:21;;;;;;;;;;;;;;;21.22;47.89;101029.16;5062705;27;6230;-68
2022/11/25 02:35:57;;;;;;;;;;;;;;;21.19;48.09;101036.22;5074902;28;4055;-68
2022/11/25 02:38:29;;;;;;;;;;;;;;;21.18;48.08;101045.50;5070907;28;4173;-68
2022/11/25 02:40:55;;;;;;;;;;;;;;;21.18;48.04;101051.28;5063496;28;4175;-68
2022/11/25 02:43:22;;;;;;;;;;;;;;;21.17;47.95;101050.53;5090264;28;4128;-68
2022/11/25 02:45:55;;;;;;;;;;;;;;;21.18;47.92;101045.50;5068511;28;5238;-67
2022/11/25 02:48:21;;;;;;;;;;;;;;;21.17;47.70;101041.91;5080449;28;4013;-68
2022/11/25 02:51:09;;;;;;;;;;;;;;;21.18;47.86;101043.38;5076780;28;4295;-68
2022/11/25 02:53:35;;;;;;;;;;;;;;;21.16;47.82;101043.28;5104945;27;4282;-67
2022/11/25 02:56:02;;;;;;;;;;;;;;;21.15;48.11;101046.81;5080694;28;4375;-67
2022/11/25 02:58:29;;;;;;;;;;;;;;;21.08;48.22;101037.91;5081396;28;5084;-67
2022/11/25 03:00:55;;;;;;;;;;;;;;;21.04;48.25;101040.56;5096512;28;5376;-67
2022/11/25 03:03:21;;;;;;;;;;;;;;;21.05;48.28;101049.97;5091212;28;4166;-68
2022/11/25 03:05:48;;;;;;;;;;;;;;;21.03;48.27;101044.88;5067174;28;6520;-67
2022/11/25 03:08:14;;;;;;;;;;;;;;;21.04;48.12;101045.59;5087725;28;4116;-67
2022/11/25 03:10:40;;;;;;;;;;;;;;;21.06;47.97;101034.91;5076708;27;5463;-67
2022/11/25 03:13:07;;;;;;;;;;;;;;;21.01;48.13;101032.50;5073248;28;4114;-68
2022/11/25 03:15:37;;;;;;;;;;;;;;;21.01;48.26;101044.03;5083511;28;5313;-67
2022/11/25 03:18:04;;;;;;;;;;;;;;;21.00;48.29;101036.78;5075249;28;4064;-68
2022/11/25 03:20:31;;;;;;;;;;;;;;;21.00;48.33;101045.41;5068812;28;4087;-68
2022/11/25 03:22:57;;;;;;;;;;;;;;;21.00;48.04;101036.78;5086909;27;4191;-67
2022/11/25 03:25:23;;;;;;;;;;;;;;;21.01;48.24;101041.16;5076042;27;5421;-68
2022/11/25 03:27:50;;;;;;;;;;;;;;;21.04;48.07;101039.84;5072797;27;4154;-67
2022/11/25 03:30:18;;;;;;;;;;;;;;;21.00;48.17;101036.78;5073899;27;4476;-69
2022/11/25 03:32:46;;;;;;;;;;;;;;;21.02;48.32;101045.50;5097089;27;4340;-68
2022/11/25 03:35:13;;;;;;;;;;;;;;;21.04;48.25;101043.47;5091299;27;5318;-68
2022/11/25 03:37:39;;;;;;;;;;;;;;;21.07;48.36;101045.06;5081028;27;5375;-67
2022/11/25 03:40:07;;;;;;;;;;;;;;;21.13;48.21;101047.47;5079912;27;4284;-68
2022/11/25 03:42:33;;;;;;;;;;;;;;;21.15;48.20;101041.81;5077958;28;4505;-67
2022/11/25 03:44:59;;;;;;;;;;;;;;;21.19;48.18;101049.88;5078649;27;4200;-67
2022/11/25 03:47:26;;;;;;;;;;;;;;;21.19;48.16;101053.50;5085923;27;3961;-67
2022/11/25 03:49:52;;;;;;;;;;;;;;;21.22;48.10;101057.97;5092682;27;3993;-67
2022/11/25 03:52:19;;;;;;;;;;;;;;;21.23;48.22;101050.06;5092329;27;4044;-68
2022/11/25 03:54:46;;;;;;;;;;;;;;;21.22;48.21;101052.19;5084643;27;4948;-68
2022/11/25 03:57:18;;;;;;;;;;;;;;;21.23;48.15;101053.69;5107091;27;4138;-68
2022/11/25 03:59:44;;;;;;;;;;;;;;;21.24;48.00;101055.19;5093232;27;4175;-67
2022/11/25 04:02:10;;;;;;;;;;;;;;;21.23;48.00;101052.94;5109201;27;4178;-67
2022/11/25 04:04:37;;;;;;;;;;;;;;;21.25;48.15;101050.88;5094075;27;4108;-67
2022/11/25 04:07:03;;;;;;;;;;;;;;;21.25;48.19;101045.13;5119162;27;4236;-67
2022/11/25 04:09:30;;;;;;;;;;;;;;;21.24;48.25;101046.53;5093474;27;4953;-67
2022/11/25 04:14:53;;;;;;;;;;;;;;;21.28;47.92;101040.97;5087842;27;4258;-67
2022/11/25 04:17:20;;;;;;;;;;;;;;;21.30;47.95;101040.31;5091202;27;4776;-68
2022/11/25 04:19:46;;;;;;;;;;;;;;;21.30;48.09;101032.41;5092922;27;4033;-67
2022/11/25 04:22:12;;;;;;;;;;;;;;;21.29;47.81;101033.81;5115105;27;4146;-68
2022/11/25 04:24:42;;;;;;;;;;;;;;;21.29;48.06;101039.56;5096445;27;6620;-67
2022/11/25 04:27:11;;;;;;;;;;;;;;;21.29;48.03;101036.69;5094472;27;5368;-67
2022/11/25 04:29:37;;;;;;;;;;;;;;;21.30;48.14;101046.81;5097820;27;5349;-67
2022/11/25 04:32:03;;;;;;;;;;;;;;;21.29;48.15;101045.31;5090183;27;4200;-67
2022/11/25 04:34:30;;;;;;;;;;;;;;;21.31;47.88;101050.44;5094539;27;4138;-67
2022/11/25 04:36:58;;;;;;;;;;;;;;;21.33;47.82;101053.41;5091122;27;4514;-67
2022/11/25 04:39:24;;;;;;;;;;;;;;;21.33;48.14;101051.28;5093212;27;4062;-67
2022/11/25 04:42:30;;;;;;;;;;;;;;;21.37;47.82;101065.09;5095949;27;5370;-67
2022/11/25 04:44:42;;;;;;;;;;;;;;;21.36;48.03;101060.00;5097654;27;4102;-67
2022/11/25 04:47:27;;;;;;;;;;;;;;;21.36;47.92;101060.00;5093120;27;5166;-68
2022/11/25 04:49:54;;;;;;;;;;;;;;;21.36;48.05;101060.00;5076910;27;4262;-68
2022/11/25 04:52:21;;;;;;;;;;;;;;;21.36;48.13;101055.00;5078144;27;4154;-67
2022/11/25 04:54:47;;;;;;;;;;;;;;;21.32;47.91;101061.28;5094640;27;3942;-68
2022/11/25 04:57:14;;;;;;;;;;;;;;;21.32;48.01;101061.28;5094714;27;4012;-67
2022/11/25 04:59:43;;;;;;;;;;;;;;;21.31;47.84;101056.94;5097436;27;4152;-68
2022/11/25 05:02:15;;;;;;;;;;;;;;;21.33;48.00;101059.91;5090955;28;4071;-67
2022/11/25 05:04:51;;;;;;;;;;;;;;;21.33;47.91;101059.19;5088840;27;4048;-67
2022/11/25 05:07:19;;;;;;;;;;;;;;;21.37;47.91;101061.47;5094126;27;4041;-68
2022/11/25 05:09:48;;;;;;;;;;;;;;;21.36;47.90;101065.78;5086990;27;3902;-67
2022/11/25 05:12:21;;;;;;;;;;;;;;;21.38;47.76;101062.97;5085618;27;4137;-68
2022/11/25 05:14:47;;;;;;;;;;;;;;;21.39;47.79;101070.22;5091871;27;4158;-67
2022/11/25 05:17:15;;;;;;;;;;;;;;;21.34;48.08;101067.16;5077899;27;4043;-68
2022/11/25 05:19:42;;;;;;;;;;;;;;;21.39;48.08;101068.06;5099098;27;4153;-68
2022/11/25 05:22:09;;;;;;;;;;;;;;;21.37;48.16;101064.38;5089489;27;4060;-67
2022/11/25 05:24:35;;;;;;;;;;;;;;;21.37;47.90;101070.13;5098720;27;4116;-67
2022/11/25 05:27:02;;;;;;;;;;;;;;;21.37;47.94;101065.09;5102763;27;4057;-67
2022/11/25 05:29:28;;;;;;;;;;;;;;;21.41;47.92;101059.56;5089587;27;4109;-67
2022/11/25 05:31:55;;;;;;;;;;;;;;;21.47;47.74;101067.75;5092953;27;6281;-67
2022/11/25 05:34:22;;;;;;;;;;;;;;;21.49;47.73;101067.84;5072243;28;4143;-67
2022/11/25 05:36:48;;;;;;;;;;;;;;;21.49;47.64;101068.59;5094570;27;4120;-67
2022/11/25 05:39:14;;;;;;;;;;;;;;;21.50;47.63;101060.66;5088690;27;4052;-67
2022/11/25 05:42:04;;;;;;;;;;;;;;;21.49;48.03;101067.84;5103072;27;4176;-67
2022/11/25 05:44:30;;;;;;;;;;;;;;;21.50;47.63;101069.31;5085262;27;4144;-67
2022/11/25 05:46:56;;;;;;;;;;;;;;;21.50;47.82;101067.16;5072654;28;4850;-67
2022/11/25 05:49:23;;;;;;;;;;;;;;;21.49;47.76;101064.97;5101183;27;3960;-68
2022/11/25 05:51:49;;;;;;;;;;;;;;;21.49;48.03;101064.97;5075524;28;4085;-68
2022/11/25 05:54:18;;;;;;;;;;;;;;;21.47;47.88;101059.84;5083606;27;5371;-68
2022/11/25 05:56:44;;;;;;;;;;;;;;;21.46;47.98;101063.38;5089108;28;3946;-68
2022/11/25 05:59:29;;;;;;;;;;;;;;;21.43;48.40;101065.41;5102917;27;4220;-67
2022/11/25 06:02:03;;;;;;;;;;;;;;;21.46;48.05;101063.38;5078308;27;4200;-67
2022/11/25 06:04:30;;;;;;;;;;;;;;;14.61;43.86;101073.88;5082978;28;4079;-66
2022/11/25 06:06:56;;;;;;;;;;;;;;;8.77;58.69;101085.03;5085922;28;4040;-65
2022/11/25 06:09:22;;;;;;;;;;;;;;;12.19;59.17;101080.75;5076478;28;4565;-64
2022/11/25 06:11:49;;;;;;;;;;;;;;;17.47;50.05;101075.19;5078561;28;5188;-64
2022/11/25 06:14:17;;;;;;;;;;;;;;;19.44;46.97;101072.13;5070738;28;4187;-63
2022/11/25 06:16:45;;;;;;;;;;;;;;;20.26;47.93;101070.63;5078507;28;4149;-64
2022/11/25 06:19:31;;;;;;;;;;;;;;;20.58;45.73;101070.78;5094731;27;4120;-61
2022/11/25 06:21:57;;;;;;;;;;;;;;;20.80;47.56;101066.09;5084452;28;4037;-60
2022/11/25 06:24:25;;;;;;;;;;;;;;;20.97;49.32;101066.88;5102815;27;4616;-62
2022/11/25 06:26:57;;;;;;;;;;;;;;;21.06;50.37;101068.72;5083949;28;4034;-61
2022/11/25 06:29:23;;;;;;;;;;;;;;;21.11;48.44;101073.28;5085888;28;4269;-61
2022/11/25 06:31:50;;;;;;;;;;;;;;;21.06;48.49;101080.25;5086522;28;5328;-62
2022/11/25 06:34:41;;;;;;;;;;;;;;;21.07;48.96;101082.50;5092426;27;4232;-63
2022/11/25 06:37:22;;;;;;;;;;;;;;;21.06;49.01;101095.38;5081837;28;5179;-65
2022/11/25 06:39:49;;;;;;;;;;;;;;;21.09;48.78;101084.69;5097413;28;4171;-64
2022/11/25 06:42:15;;;;;;;;;;;;;;;21.11;48.81;101093.44;5096808;28;4220;-63
2022/11/25 06:44:41;;;;;;;;;;;;;;;21.15;48.73;101093.63;5099976;28;4725;-59
2022/11/25 06:47:07;;;;;;;;;;;;;;;21.15;49.08;101102.28;5095314;28;4173;-61
2022/11/25 06:49:34;;;;;;;;;;;;;;;21.09;48.25;101096.22;5097227;28;5173;-61
2022/11/25 06:52:00;;;;;;;;;;;;;;;21.07;48.39;101110.50;5103784;28;4009;-60
2022/11/25 06:54:26;;;;;;;;;;;;;;;21.14;48.83;101115.16;5092008;28;4915;-60
2022/11/25 06:56:53;;;;;;;;;;;;;;;21.16;48.81;101118.16;5098915;28;5179;-61
2022/11/25 06:59:19;;;;;;;;;;;;;;;20.92;48.47;101114.88;5094854;27;5267;-63
2022/11/25 07:01:46;;;;;;;;;;;;;;;20.58;47.23;101126.19;5099123;27;4072;-61
2022/11/25 07:04:12;;;;;;;;;;;;;;;20.67;45.98;101121.56;5095169;27;4563;-63
2022/11/25 07:06:38;;;;;;;;;;;;;;;20.87;44.72;101125.44;5106812;27;4147;-61
2022/11/25 07:09:05;;;;;;;;;;;;;;;21.06;45.92;101134.94;5099126;27;4306;-62
2022/11/25 07:11:32;;;;;;;;;;;;;;;21.21;45.60;101125.59;5095805;27;4163;-64
2022/11/25 07:13:59;;;;;;;;;;;;;;;21.24;46.49;101130.06;5098298;27;5272;-64
2022/11/25 07:16:25;;;;;;;;;;;;;;;21.27;46.87;101134.50;5098953;27;4244;-65
2022/11/25 07:18:51;;;;;;;;;;;;;;;21.27;46.94;101128.00;5098225;27;5186;-65
2022/11/25 07:21:19;;;;;;;;;;;;;;;21.30;47.13;101139.00;5094179;28;5371;-66
2022/11/25 07:23:45;;;;;;;;;;;;;;;21.32;47.38;101132.56;5099567;28;4121;-65
2022/11/25 07:26:17;;;;;;;;;;;;;;;21.34;47.33;101139.16;5100175;27;4352;-64
2022/11/25 07:28:43;;;;;;;;;;;;;;;21.34;47.19;101138.44;5098731;28;4097;-64
2022/11/25 07:31:12;;;;;;;;;;;;;;;21.32;47.64;101136.19;5101404;27;4175;-63
2022/11/25 07:34:05;;;;;;;;;;;;;;;21.39;47.73;101133.59;5099256;27;4207;-65
2022/11/25 07:36:31;;;;;;;;;;;;;;;21.38;48.01;101126.38;5108083;27;5384;-65
2022/11/25 07:38:58;;;;;;;;;;;;;;;21.38;47.99;101132.88;5115450;27;4137;-65
2022/11/25 07:41:25;;;;;;;;;;;;;;;21.41;48.18;101133.72;5121129;27;4173;-64
2022/11/25 07:43:52;;;;;;;;;;;;;;;21.41;48.00;101136.59;5105293;27;4182;-65
2022/11/25 07:46:24;;;;;;;;;;;;;;;21.43;48.29;101145.34;5095030;27;4201;-65
2022/11/25 07:48:53;;;;;;;;;;;;;;;21.42;48.00;101143.88;5120757;27;4170;-64
2022/11/25 07:51:20;;;;;;;;;;;;;;;21.43;47.99;101137.44;5120312;27;5259;-65
2022/11/25 07:53:46;;;;;;;;;;;;;;;21.45;48.18;101136.78;5103539;27;4202;-65
2022/11/25 07:56:13;;;;;;;;;;;;;;;21.45;48.20;101136.78;5103172;27;4108;-64
2022/11/25 07:58:39;;;;;;;;;;;;;;;21.45;48.15;101134.66;5111867;27;4223;-64
2022/11/25 08:01:11;;;;;;;;;;;;;;;21.55;48.00;101134.38;5115653;27;4096;-65
2022/11/25 08:03:38;;;;;;;;;;;;;;;21.99;48.02;101134.91;5112684;27;5126;-63
2022/11/25 08:06:08;;;;;;;;;;;;;;;22.17;47.27;101144.34;5110191;27;4132;-61
2022/11/25 08:08:35;;;;;;;;;;;;;;;22.28;47.09;101148.44;5109632;27;4217;-63
2022/11/25 08:11:04;;;;;;;;;;;;;;;22.33;46.82;101149.34;5107272;27;4137;-62
2022/11/25 08:13:31;;;;;;;;;;;;;;;22.37;46.98;101161.06;5108272;27;5059;-62
2022/11/25 08:15:58;;;;;;;;;;;;;;;22.40;46.57;101153.97;5106131;27;5434;-60
2022/11/25 08:18:24;;;;;;;;;;;;;;;22.44;46.57;101159.19;5110667;27;5262;-65
2022/11/25 08:20:50;;;;;;;;;;;;;;;22.50;46.66;101156.56;5106238;27;5130;-59
2022/11/25 08:23:17;;;;;;;;;;;;;;;22.48;46.91;101160.09;5105044;27;4089;-63
2022/11/25 08:25:43;;;;;;;;;;;;;;;22.51;46.73;101158.78;5105011;27;4214;-61
2022/11/25 08:28:15;;;;;;;;;;;;;;;22.55;46.73;101158.22;5105502;27;4163;-63
2022/11/25 08:30:42;;;;;;;;;;;;;;;22.55;46.32;101155.34;5100894;27;4175;-64
2022/11/25 08:33:08;;;;;;;;;;;;;;;22.54;46.43;101163.25;5106255;27;5352;-64
2022/11/25 08:35:37;;;;;;;;;;;;;;;22.59;46.48;101152.63;5103409;27;4019;-64
2022/11/25 08:38:04;;;;;;;;;;;;;;;22.61;46.54;101166.38;5092007;27;4044;-64
2022/11/25 08:40:31;;;;;;;;;;;;;;;22.65;46.25;101169.44;5101750;27;5180;-64
2022/11/25 08:42:57;;;;;;;;;;;;;;;22.69;46.41;101161.69;5102248;27;5257;-64
2022/11/25 08:45:24;;;;;;;;;;;;;;;22.66;46.10;101159.41;5106119;27;4300;-62
2022/11/25 08:47:50;;;;;;;;;;;;;;;22.71;46.57;101155.28;5105648;27;4591;-61
2022/11/25 08:50:16;;;;;;;;;;;;;;;22.68;46.55;101165.25;5106030;27;5169;-63
2022/11/25 08:52:43;;;;;;;;;;;;;;;22.71;46.09;101169.72;5103860;27;5282;-64
2022/11/25 08:55:09;;;;;;;;;;;;;;;22.68;46.51;101165.25;5101725;27;4180;-60
2022/11/25 08:57:35;;;;;;;;;;;;;;;22.69;46.17;101161.69;5104567;27;4096;-63
2022/11/25 09:00:03;;;;;;;;;;;;;;;22.74;46.09;101162.59;5103231;27;4100;-64
2022/11/25 09:02:29;;;;;;;;;;;;;;;22.78;46.34;101159.91;5105728;27;4208;-62
2022/11/25 09:04:56;;;;;;;;;;;;;;;22.82;46.30;101162.97;5103799;27;4303;-63
2022/11/25 09:07:22;;;;;;;;;;;;;;;22.81;46.01;101161.44;5104572;27;5346;-64
2022/11/25 09:09:55;;;;;;;;;;;;;;;22.42;46.36;101171.38;5106125;27;3956;-64
2022/11/25 09:12:22;;;;;;;;;;;;;;;22.43;46.70;101170.00;5099415;27;4245;-63
2022/11/25 09:14:48;;;;;;;;;;;;;;;22.46;46.42;101174.44;5106388;27;4290;-61
2022/11/25 09:17:15;;;;;;;;;;;;;;;20.24;44.98;101168.28;5102717;27;4225;-62
2022/11/25 09:19:41;;;;;;;;;;;;;;;21.23;47.73;101168.13;5097397;27;3945;-61
2022/11/25 09:22:07;;;;;;;;;;;;;;;21.95;46.73;101164.31;5102817;27;4415;-61
2022/11/25 09:24:34;;;;;;;;;;;;;;;22.03;46.77;101169.66;5102245;27;4890;-65
2022/11/25 09:27:01;;;;;;;;;;;;;;;22.15;47.12;101169.47;5102339;27;4134;-60
2022/11/25 09:29:29;;;;;;;;;;;;;;;22.21;47.30;101163.22;5100980;27;4145;-62
2022/11/25 09:31:55;;;;;;;;;;;;;;;22.30;47.60;101156.44;5098516;27;5513;-63
2022/11/25 09:34:22;;;;;;;;;;;;;;;22.34;47.56;101163.13;5099842;27;4548;-58
2022/11/25 09:36:48;;;;;;;;;;;;;;;22.25;47.69;101161.28;5095492;28;4353;-62
2022/11/25 09:39:14;;;;;;;;;;;;;;;22.05;47.97;101166.88;5097214;28;4114;-66
2022/11/25 09:47:50;;;;;;;;;;;;;;;22.17;47.53;101155.91;5080627;28;5445;-66
2022/11/25 09:50:41;;;;;;;;;;;;;;;22.18;47.38;101157.38;5101534;27;5506;-68
2022/11/25 09:53:07;;;;;;;;;;;;;;;22.18;47.14;101157.38;5086928;28;4578;-66
2022/11/25 09:55:38;;;;;;;;;;;;;;;22.20;47.29;101153.09;5101388;28;4294;-66
2022/11/25 09:58:15;;;;;;;;;;;;;;;22.20;46.99;101153.84;5094253;28;5485;-66
2022/11/25 10:00:45;;;;;;;;;;;;;;;22.21;47.06;101152.47;5084569;28;5366;-67
2022/11/25 10:03:14;;;;;;;;;;;;;;;22.21;46.94;101160.34;5095393;27;4115;-66
2022/11/25 10:05:41;;;;;;;;;;;;;;;22.22;46.95;101158.97;5095509;28;4918;-66
2022/11/25 10:08:18;;;;;;;;;;;;;;;22.21;46.98;101161.13;5105827;27;4139;-66
2022/11/25 10:10:49;;;;;;;;;;;;;;;22.21;46.97;101166.13;5098531;27;4049;-67
2022/11/25 10:13:18;;;;;;;;;;;;;;;22.21;47.10;101166.13;5104233;27;4093;-66
2022/11/25 10:15:45;;;;;;;;;;;;;;;22.19;47.10;101169.66;5090917;28;4146;-66
2022/11/25 10:18:20;;;;;;;;;;;;;;;22.17;46.74;101173.19;5100424;27;3973;-66
2022/11/25 10:20:46;;;;;;;;;;;;;;;22.17;47.05;101167.44;5105436;27;5243;-66
2022/11/25 10:23:31;;;;;;;;;;;;;;;22.18;46.70;101168.91;5098510;28;4175;-66
2022/11/25 10:25:58;;;;;;;;;;;;;;;22.20;46.91;101164.63;5101363;28;4125;-66
2022/11/25 10:28:28;;;;;;;;;;;;;;;22.21;46.85;101171.88;5088517;27;4119;-66
2022/11/25 10:30:59;;;;;;;;;;;;;;;22.22;46.84;101170.50;5104494;28;4025;-66
2022/11/25 10:33:27;;;;;;;;;;;;;;;22.20;46.92;101164.63;5094339;28;4470;-66
2022/11/25 10:35:57;;;;;;;;;;;;;;;22.21;46.93;101160.34;5104102;27;4019;-66
2022/11/25 10:38:28;;;;;;;;;;;;;;;22.22;46.87;101164.72;5087998;28;4042;-66
2022/11/25 10:40:55;;;;;;;;;;;;;;;22.21;46.96;101160.34;5089560;28;5188;-66
2022/11/25 10:43:21;;;;;;;;;;;;;;;22.21;46.92;101163.22;5088527;28;4215;-66
2022/11/25 10:46:06;;;;;;;;;;;;;;;22.21;46.95;101166.13;5092834;28;4061;-71
2022/11/25 10:48:41;;;;;;;;;;;;;;;22.10;47.30;101168.53;5088966;28;5329;-60
2022/11/25 10:51:30;;;;;;;;;;;;;;;21.65;45.46;101157.91;5093875;28;5272;-63
2022/11/25 10:54:10;;;;;;;;;;;;;;;21.78;45.58;101155.56;5082707;28;5502;-59
2022/11/25 10:56:52;;;;;;;;;;;;;;;21.92;46.84;101159.09;5096624;27;5374;-64
2022/11/25 10:59:22;;;;;;;;;;;;;;;21.99;46.49;101163.75;5107396;28;5321;-65
2022/11/25 11:01:49;;;;;;;;;;;;;;;22.00;46.31;101153.69;5105923;28;5256;-65
2022/11/25 11:04:17;;;;;;;;;;;;;;;20.67;43.89;101153.22;5107404;27;4200;-63
2022/11/25 11:06:44;;;;;;;;;;;;;;;20.79;43.44;101159.56;5111078;28;5410;-62
2022/11/25 11:09:33;;;;;;;;;;;;;;;21.37;45.49;101159.44;5108201;27;4310;-58
2022/11/25 11:12:13;;;;;;;;;;;;;;;21.73;46.57;101148.88;5103655;27;4030;-61
2022/11/25 11:14:40;;;;;;;;;;;;;;;21.37;44.48;101154.41;5115997;28;4149;-67
2022/11/25 11:17:07;;;;;;;;;;;;;;;20.04;43.50;101151.47;5114671;28;4091;-60
2022/11/25 11:19:33;;;;;;;;;;;;;;;20.55;42.35;101146.81;5099335;27;4039;-62
2022/11/25 11:22:15;;;;;;;;;;;;;;;21.15;43.56;101148.34;5098021;28;4168;-63
2022/11/25 11:24:42;;;;;;;;;;;;;;;21.32;42.98;101152.72;5113069;28;4146;-65
2022/11/25 11:27:08;;;;;;;;;;;;;;;21.49;42.92;101145.63;5083867;28;4186;-62
2022/11/25 11:29:34;;;;;;;;;;;;;;;21.59;44.91;101139.59;5106779;28;4291;-62
2022/11/25 11:32:04;;;;;;;;;;;;;;;21.63;45.05;101143.41;5115924;27;4089;-62
2022/11/25 11:34:43;;;;;;;;;;;;;;;21.71;45.67;101140.88;5116192;27;5382;-63
2022/11/25 11:37:09;;;;;;;;;;;;;;;21.72;45.45;101139.50;5099962;28;5251;-64
2022/11/25 11:39:41;;;;;;;;;;;;;;;21.75;46.02;101135.28;5103641;28;4123;-61
2022/11/25 11:42:07;;;;;;;;;;;;;;;21.79;46.44;101128.25;5090258;28;4145;-63
2022/11/25 11:44:52;;;;;;;;;;;;;;;21.66;45.88;101124.06;5100658;28;4121;-64
2022/11/25 11:47:26;;;;;;;;;;;;;;;21.72;46.01;101133.72;5081946;27;4634;-65
2022/11/25 11:50:11;;;;;;;;;;;;;;;22.14;47.21;101127.59;5089466;27;5463;-65
2022/11/25 11:52:56;;;;;;;;;;;;;;;22.31;46.18;101123.28;5100335;27;4162;-65
2022/11/25 11:55:35;;;;;;;;;;;;;;;22.44;46.75;101122.41;5092676;27;4180;-67
2022/11/25 11:58:13;;;;;;;;;;;;;;;21.45;44.35;101116.63;5070583;27;5290;-60
2022/11/25 12:00:44;;;;;;;;;;;;;;;21.31;43.43;101117.44;5082803;27;5230;-56
2022/11/25 12:03:12;;;;;;;;;;;;;;;21.55;42.95;101117.09;5087322;27;3940;-58
2022/11/25 12:05:38;;;;;;;;;;;;;;;21.80;44.09;101115.31;5097417;27;5131;-58
2022/11/25 12:08:09;;;;;;;;;;;;;;;22.08;43.88;101119.44;5084358;27;4181;-55
2022/11/25 12:10:36;;;;;;;;;;;;;;;22.18;43.05;101127.78;5084491;27;4394;-59
2022/11/25 12:13:03;;;;;;;;;;;;;;;22.18;43.63;101119.13;5077292;27;4211;-65
2022/11/25 12:15:34;;;;;;;;;;;;;;;22.30;44.58;101128.34;5086766;27;4105;-64
2022/11/25 12:18:01;;;;;;;;;;;;;;;22.39;44.67;101117.88;5081188;27;4248;-64
2022/11/25 12:20:31;;;;;;;;;;;;;;;22.44;44.90;101122.41;5094728;27;4164;-64
2022/11/25 12:23:03;;;;;;;;;;;;;;;22.51;44.99;101135.69;5083052;27;4203;-61
2022/11/25 12:25:30;;;;;;;;;;;;;;;22.45;44.89;101132.56;5076341;27;4184;-65
2022/11/25 12:28:00;;;;;;;;;;;;;;;22.35;45.53;101137.91;5068544;27;4235;-67
2022/11/25 12:30:56;;;;;;;;;;;;;;;22.28;45.57;101136.91;5097252;27;4170;-67
2022/11/25 12:33:35;;;;;;;;;;;;;;;22.25;45.84;101131.72;5024712;27;4143;-65
2022/11/25 12:36:03;;;;;;;;;;;;;;;22.26;45.85;101133.19;5077251;27;4179;-66
2022/11/25 12:38:36;;;;;;;;;;;;;;;22.26;45.85;101127.41;5080208;27;4517;-66
2022/11/25 12:41:23;;;;;;;;;;;;;;;22.27;45.68;101123.16;5100721;27;4190;-67
2022/11/25 12:44:00;;;;;;;;;;;;;;;22.27;45.69;101126.03;5097840;27;5574;-64
2022/11/25 12:46:34;;;;;;;;;;;;;;;22.67;45.84;101132.00;5104022;27;4187;-64
2022/11/25 12:49:00;;;;;;;;;;;;;;;22.88;45.40;101125.66;5083060;27;4204;-64
2022/11/25 12:51:37;;;;;;;;;;;;;;;22.90;45.49;101128.63;5093898;27;4162;-65
2022/11/25 12:54:22;;;;;;;;;;;;;;;22.55;46.06;101127.22;5095365;27;4207;-65
2022/11/25 12:56:54;;;;;;;;;;;;;;;22.69;46.39;101134.97;5102431;27;4160;-65
2022/11/25 12:59:30;;;;;;;;;;;;;;;23.00;45.66;101142.78;5100376;27;4129;-65
2022/11/25 13:02:03;;;;;;;;;;;;;;;23.18;46.19;101131.16;5090922;27;4177;-64
2022/11/25 13:04:42;;;;;;;;;;;;;;;23.35;45.75;101141.22;5090796;27;5081;-65
2022/11/25 13:07:18;;;;;;;;;;;;;;;23.39;45.61;101124.78;5088443;28;4195;-65
2022/11/25 13:10:00;;;;;;;;;;;;;;;23.35;45.45;101129.66;5090779;27;4026;-65